Time;durP1;ratioP1;P1;durP2;ratioP2;P2;SDS_P1;SDS_P2;PMS_P1;PMS_P2;Temp;Humidity;BMP_temperature;BMP_pressure;BME280_temperature;BME280_humidity;BME280_pressure;Samples;Min_cycle;Max_cycle;Signal;HPM_P1;HPM_P2
2022/02/12 03:46:22;;;;;;;12.95;3.08;;;6.80;86.20;;;;;;5273842;24;20315;-82
2022/02/12 03:48:47;;;;;;;14.43;4.43;;;6.70;87.40;;;;;;4737090;30;20036;-83
2022/02/12 03:51:16;;;;;;;9.55;3.30;;;6.70;87.60;;;;;;4740532;30;20032;-82
2022/02/12 03:53:42;;;;;;;8.13;3.33;;;6.70;88.90;;;;;;4747300;30;20043;-82
2022/02/12 03:56:07;;;;;;;14.35;5.10;;;6.60;89.40;;;;;;4743970;30;20045;-82
2022/02/12 03:58:33;;;;;;;11.50;3.85;;;6.70;89.80;;;;;;4746903;30;20117;-82
2022/02/12 04:00:59;;;;;;;9.65;3.55;;;6.70;89.60;;;;;;4746679;30;20043;-83
2022/02/12 04:03:25;;;;;;;14.80;4.82;;;6.70;89.50;;;;;;4717905;30;20032;-82
2022/02/12 04:05:50;;;;;;;11.50;3.83;;;6.70;89.20;;;;;;4776700;30;20069;-81
2022/02/12 04:08:21;;;;;;;10.18;3.80;;;6.70;89.30;;;;;;4761489;30;20039;-82
2022/02/12 04:10:48;;;;;;;8.75;3.90;;;6.70;89.20;;;;;;4762612;30;20039;-82
2022/02/12 04:13:14;;;;;;;7.65;3.38;;;6.70;89.00;;;;;;4743766;30;20033;-82
2022/02/12 04:15:41;;;;;;;8.53;3.37;;;6.80;89.00;;;;;;4743500;30;20096;-83
2022/02/12 04:18:13;;;;;;;10.97;3.63;;;6.70;88.90;;;;;;4758325;30;20299;-83
2022/02/12 04:20:39;;;;;;;7.82;3.40;;;6.70;89.30;;;;;;4738999;30;20035;-81
2022/02/12 04:23:05;;;;;;;9.60;3.97;;;6.70;89.30;;;;;;4746658;30;20236;-83
2022/02/12 04:25:31;;;;;;;7.17;3.07;;;6.70;89.30;;;;;;4732178;30;20369;-83
2022/02/12 04:28:03;;;;;;;8.70;3.30;;;6.70;89.40;;;;;;4746298;30;20236;-82
2022/02/12 04:30:28;;;;;;;7.35;3.38;;;6.70;90.00;;;;;;4731864;30;20040;-83
2022/02/12 04:32:54;;;;;;;8.15;3.65;;;6.70;89.20;;;;;;4732112;30;20233;-83
2022/02/12 04:35:20;;;;;;;7.05;3.15;;;6.70;89.50;;;;;;4743431;30;20047;-83
2022/02/12 04:37:46;;;;;;;8.15;3.42;;;6.70;89.60;;;;;;4761081;30;20275;-83
2022/02/12 04:40:13;;;;;;;10.93;3.42;;;6.60;90.00;;;;;;4746706;30;20036;-83
2022/02/12 04:42:38;;;;;;;;;;;6.60;90.00;;;;;;4761422;30;20417;-82
2022/02/12 04:45:07;;;;;;;8.05;3.55;;;6.60;90.10;;;;;;4775809;30;19937;-81
2022/02/12 04:47:32;;;;;;;10.98;3.47;;;6.60;89.90;;;;;;4733992;30;20251;-82
2022/02/12 04:49:58;;;;;;;8.70;3.85;;;6.60;90.00;;;;;;4728827;30;20041;-83
2022/02/12 04:52:25;;;;;;;9.13;3.65;;;6.60;90.00;;;;;;4744506;30;20328;-82
2022/02/12 04:54:51;;;;;;;8.23;3.88;;;6.50;89.80;;;;;;4746138;30;20090;-82
2022/02/12 04:57:17;;;;;;;12.85;3.92;;;6.40;90.10;;;;;;4746139;30;20044;-81
2022/02/12 04:59:43;;;;;;;13.35;4.13;;;6.30;90.30;;;;;;4746416;30;20040;-81
2022/02/12 05:02:09;;;;;;;9.68;4.03;;;6.20;90.50;;;;;;4772491;30;20036;-82
2022/02/12 05:04:36;;;;;;;10.43;3.63;;;6.20;90.60;;;;;;4717400;30;20086;-83
2022/02/12 05:07:02;;;;;;;10.43;3.53;;;6.10;90.90;;;;;;4746116;30;20335;-83
2022/02/12 05:09:31;;;;;;;8.18;3.95;;;6.10;90.80;;;;;;4746114;30;20032;-83
2022/02/12 05:11:57;;;;;;;12.10;3.60;;;6.10;90.70;;;;;;4746061;30;20224;-83
2022/02/12 05:14:23;;;;;;;8.35;3.20;;;6.10;90.80;;;;;;4760746;30;20032;-82
2022/02/12 05:16:49;;;;;;;18.00;4.10;;;6.10;90.90;;;;;;4728355;30;20253;-82
2022/02/12 05:19:14;;;;;;;10.77;3.97;;;6.00;91.00;;;;;;4728396;30;20041;-82
2022/02/12 05:21:40;;;;;;;8.68;4.05;;;6.00;91.20;;;;;;4721441;30;20053;-83
2022/02/12 05:24:06;;;;;;;11.20;4.80;;;6.00;91.20;;;;;;4745996;30;20036;-83
2022/02/12 05:26:32;;;;;;;10.70;4.65;;;6.00;91.10;;;;;;4736522;30;20051;-82
2022/02/12 05:28:58;;;;;;;8.82;4.68;;;6.10;91.00;;;;;;4759602;30;20036;-82
2022/02/12 05:31:24;;;;;;;10.63;4.53;;;6.10;90.90;;;;;;4767657;30;20039;-82
2022/02/12 05:33:50;;;;;;;11.75;4.70;;;6.10;90.90;;;;;;4735115;30;20290;-83
2022/02/12 05:36:16;;;;;;;11.77;4.45;;;6.10;90.80;;;;;;4764052;30;20354;-82
2022/02/12 05:38:42;;;;;;;18.90;5.00;;;6.20;90.70;;;;;;4749377;30;20108;-83
2022/02/12 05:41:09;;;;;;;11.63;4.47;;;6.20;90.90;;;;;;4748499;30;20036;-83
2022/02/12 05:43:36;;;;;;;8.73;3.58;;;6.10;90.60;;;;;;4767705;30;20090;-82
2022/02/12 05:46:03;;;;;;;12.18;4.53;;;6.10;90.60;;;;;;4748848;30;20062;-83
2022/02/12 05:48:31;;;;;;;9.25;4.40;;;6.00;90.90;;;;;;4749616;30;20063;-82
2022/02/12 05:50:57;;;;;;;7.72;4.25;;;5.90;91.00;;;;;;4749208;30;20394;-83
2022/02/12 05:53:23;;;;;;;5.83;4.10;;;5.90;91.30;;;;;;4749113;30;20059;-83
2022/02/12 05:55:49;;;;;;;9.15;4.32;;;5.80;91.40;;;;;;4734503;30;20039;-83
2022/02/12 05:58:15;;;;;;;12.90;5.63;;;5.80;91.40;;;;;;4748877;30;20336;-82
2022/02/12 06:00:41;;;;;;;6.68;4.50;;;5.70;91.70;;;;;;4745900;30;20043;-83
2022/02/12 06:03:06;;;;;;;12.48;4.90;;;5.70;91.70;;;;;;4748934;30;20028;-82
2022/02/12 06:05:32;;;;;;;11.90;4.95;;;5.60;91.90;;;;;;4747291;30;20340;-83
2022/02/12 06:08:01;;;;;;;10.02;4.82;;;5.60;92.10;;;;;;4746196;30;20041;-83
2022/02/12 06:10:27;;;;;;;8.80;4.45;;;5.50;92.20;;;;;;4737852;30;20268;-83
2022/02/12 06:12:54;;;;;;;11.20;5.03;;;5.50;92.20;;;;;;4755333;30;20040;-82
2022/02/12 06:15:20;;;;;;;10.63;5.72;;;5.50;92.30;;;;;;4748825;30;20332;-82
2022/02/12 06:17:46;;;;;;;12.73;4.78;;;5.40;92.30;;;;;;4738603;30;20078;-81
2022/02/12 06:20:13;;;;;;;16.48;5.57;;;5.40;92.40;;;;;;4748668;30;20032;-83
2022/02/12 06:22:38;;;;;;;13.07;5.23;;;5.30;92.70;;;;;;4748685;30;20059;-83
2022/02/12 06:25:05;;;;;;;14.05;5.00;;;5.30;92.90;;;;;;4763277;30;20098;-83
2022/02/12 06:27:31;;;;;;;13.20;5.35;;;5.20;92.80;;;;;;4719510;30;20039;-82
2022/02/12 06:29:57;;;;;;;13.10;5.57;;;5.20;93.00;;;;;;4733952;30;20044;-82
2022/02/12 06:32:23;;;;;;;13.07;5.03;;;5.20;93.20;;;;;;4760179;30;20036;-81
2022/02/12 06:34:51;;;;;;;15.93;6.10;;;5.20;93.60;;;;;;4762829;30;20044;-82
2022/02/12 06:37:19;;;;;;;13.18;6.00;;;5.20;93.70;;;;;;4762304;30;20104;-83
2022/02/12 06:39:49;;;;;;;15.43;5.47;;;5.10;93.60;;;;;;4765105;30;20036;-83
2022/02/12 06:42:15;;;;;;;14.02;5.07;;;5.10;93.70;;;;;;4762478;30;20244;-83
2022/02/12 06:44:41;;;;;;;12.43;5.53;;;5.20;93.80;;;;;;4763031;30;20115;-83
2022/02/12 06:47:08;;;;;;;14.10;5.78;;;5.20;93.90;;;;;;4717971;30;20059;-82
2022/02/12 06:49:33;;;;;;;19.23;6.75;;;5.20;93.80;;;;;;4781898;30;20043;-83
2022/02/12 06:51:59;;;;;;;12.88;5.22;;;5.20;94.00;;;;;;4782037;30;20391;-83
2022/02/12 06:54:25;;;;;;;13.57;5.80;;;5.20;94.20;;;;;;4797032;30;20354;-83
2022/02/12 06:56:51;;;;;;;14.73;6.50;;;5.20;94.10;;;;;;4769314;30;20110;-82
2022/02/12 06:59:17;;;;;;;17.65;5.78;;;5.20;94.10;;;;;;4796925;29;20204;-82
2022/02/12 07:01:43;;;;;;;18.63;7.07;;;5.30;94.20;;;;;;4781784;30;20254;-82
2022/02/12 07:04:09;;;;;;;10.40;5.93;;;5.30;94.10;;;;;;4767042;30;20047;-83
2022/02/12 07:06:36;;;;;;;11.35;6.60;;;5.30;94.00;;;;;;4767088;30;20028;-82
2022/02/12 07:09:04;;;;;;;10.27;5.63;;;5.40;93.80;;;;;;4752731;30;20406;-82
2022/02/12 07:11:31;;;;;;;11.65;6.10;;;5.50;93.80;;;;;;4781599;30;20087;-82
2022/02/12 07:13:57;;;;;;;11.05;6.10;;;5.40;93.50;;;;;;4737967;30;20039;-83
2022/02/12 07:16:23;;;;;;;17.35;6.53;;;5.50;93.30;;;;;;4766873;30;20039;-83
2022/02/12 07:18:49;;;;;;;11.55;6.97;;;5.50;93.20;;;;;;4758114;30;20051;-83
2022/02/12 07:21:15;;;;;;;15.63;6.27;;;5.60;93.00;;;;;;4750038;30;20055;-82
2022/02/12 07:23:42;;;;;;;13.52;7.00;;;5.60;92.70;;;;;;4746518;30;20393;-82
2022/02/12 07:26:08;;;;;;;12.27;6.67;;;5.60;92.60;;;;;;4760874;30;20036;-82
2022/02/12 07:28:34;;;;;;;15.60;6.78;;;5.70;92.40;;;;;;4745411;30;20340;-81
2022/02/12 07:31:01;;;;;;;12.82;6.40;;;5.70;92.20;;;;;;4745927;30;20040;-83
2022/02/12 07:33:26;;;;;;;12.82;6.47;;;5.80;92.00;;;;;;4755965;30;20362;-82
2022/02/12 07:35:53;;;;;;;9.75;6.22;;;5.80;91.70;;;;;;4748564;30;20060;-82
2022/02/12 07:38:20;;;;;;;15.45;6.32;;;5.90;91.70;;;;;;4760671;30;20039;-82
2022/02/12 07:40:47;;;;;;;13.95;6.13;;;5.90;91.60;;;;;;4775653;30;20039;-82
2022/02/12 07:43:13;;;;;;;10.25;6.55;;;6.00;91.40;;;;;;4760132;30;20063;-82
2022/02/12 07:45:39;;;;;;;13.15;7.43;;;6.10;91.20;;;;;;4729416;30;20038;-83
2022/02/12 07:48:05;;;;;;;11.40;5.80;;;6.10;90.60;;;;;;4774448;30;20048;-83
2022/02/12 07:50:31;;;;;;;7.82;5.07;;;6.10;90.60;;;;;;4728868;30;20236;-83
2022/02/12 07:52:57;;;;;;;9.65;5.82;;;6.20;90.30;;;;;;4744366;30;20039;-82
2022/02/12 07:55:22;;;;;;;8.18;5.75;;;6.20;90.00;;;;;;4760607;30;20048;-82
2022/02/12 07:57:48;;;;;;;8.75;6.20;;;6.30;90.00;;;;;;4744575;30;20043;-83
2022/02/12 08:00:16;;;;;;;12.73;6.78;;;6.30;89.40;;;;;;4744641;30;20040;-83
2022/02/12 08:02:43;;;;;;;12.50;6.90;;;6.40;88.80;;;;;;4760164;30;20036;-82
2022/02/12 08:05:10;;;;;;;9.57;6.32;;;6.40;88.10;;;;;;4744753;30;20043;-82
2022/02/12 08:07:38;;;;;;;12.68;6.78;;;6.50;87.90;;;;;;4760095;30;20119;-83
2022/02/12 08:12:52;;;;;;;8.50;6.38;;;6.60;86.70;;;;;;4761028;30;20158;-83
2022/02/12 08:15:18;;;;;;;10.27;5.85;;;6.60;85.70;;;;;;4775471;30;20031;-83
2022/02/12 08:17:44;;;;;;;9.45;6.20;;;6.60;85.20;;;;;;4774654;30;20039;-83
2022/02/12 08:20:10;;;;;;;9.40;5.63;;;6.60;84.90;;;;;;4756023;30;20390;-83
2022/02/12 08:22:36;;;;;;;11.93;5.85;;;6.60;84.70;;;;;;4759595;30;20024;-83
2022/02/12 08:25:03;;;;;;;8.85;5.10;;;6.70;84.40;;;;;;4759914;30;20057;-83
2022/02/12 08:27:29;;;;;;;8.10;5.63;;;6.70;84.00;;;;;;4774611;30;20436;-83
2022/02/12 08:29:55;;;;;;;9.13;4.68;;;6.70;83.60;;;;;;4745302;30;20080;-83
2022/02/12 08:32:23;;;;;;;8.25;4.97;;;6.80;83.60;;;;;;4759914;30;20063;-83
2022/02/12 08:34:50;;;;;;;12.00;5.93;;;6.80;82.90;;;;;;4760141;30;20043;-83
2022/02/12 08:37:17;;;;;;;7.03;5.28;;;6.90;82.50;;;;;;4759486;30;20051;-83
2022/02/12 08:39:43;;;;;;;10.57;5.15;;;7.00;81.80;;;;;;4760242;30;20044;-83
2022/02/12 08:42:09;;;;;;;8.85;4.90;;;7.00;81.70;;;;;;4744203;30;20032;-83
2022/02/12 08:44:35;;;;;;;11.40;5.68;;;7.20;82.00;;;;;;4743827;30;20097;-83
2022/02/12 08:47:02;;;;;;;7.00;5.20;;;7.30;81.30;;;;;;4760066;30;20040;-83
2022/02/12 08:49:29;;;;;;;10.02;5.50;;;7.30;79.50;;;;;;4743668;30;20500;-82
2022/02/12 08:51:55;;;;;;;7.75;4.78;;;7.30;79.80;;;;;;4760329;30;20036;-82
2022/02/12 08:54:21;;;;;;;8.65;4.95;;;7.40;80.00;;;;;;4760374;30;20040;-83
2022/02/12 08:56:47;;;;;;;11.30;4.95;;;7.50;79.80;;;;;;4760312;30;20020;-82
2022/02/12 08:59:13;;;;;;;7.55;4.78;;;7.60;79.40;;;;;;4751523;30;20036;-82
2022/02/12 09:01:40;;;;;;;8.50;5.75;;;7.60;79.10;;;;;;4745070;30;20039;-82
2022/02/12 09:04:09;;;;;;;9.23;4.85;;;7.70;77.90;;;;;;4751638;30;20046;-83
2022/02/12 09:06:36;;;;;;;8.07;4.32;;;7.70;78.40;;;;;;4759563;30;20040;-82
2022/02/12 09:09:03;;;;;;;7.60;5.28;;;7.90;77.00;;;;;;4759978;30;20085;-81
2022/02/12 09:11:30;;;;;;;8.10;5.45;;;7.90;77.50;;;;;;4745362;30;20388;-83
2022/02/12 09:13:57;;;;;;;5.88;4.22;;;8.00;76.80;;;;;;4745670;30;20032;-80
2022/02/12 09:16:25;;;;;;;9.00;4.68;;;8.10;75.50;;;;;;4745415;30;20127;-82
2022/02/12 09:18:54;;;;;;;10.82;5.20;;;8.10;75.60;;;;;;4760189;30;20040;-81
2022/02/12 09:21:22;;;;;;;8.75;4.68;;;8.20;73.90;;;;;;4745933;30;20043;-83
2022/02/12 09:23:49;;;;;;;7.35;4.57;;;8.20;74.80;;;;;;4745533;30;20039;-83
2022/02/12 09:26:17;;;;;;;9.50;4.43;;;8.30;74.30;;;;;;4760206;30;20050;-83
2022/02/12 09:28:46;;;;;;;9.75;4.38;;;8.40;73.20;;;;;;4745406;30;20310;-83
2022/02/12 09:31:12;;;;;;;6.28;3.75;;;8.40;71.20;;;;;;4744451;30;20067;-83
2022/02/12 09:33:38;;;;;;;8.20;4.70;;;8.50;71.00;;;;;;4741603;30;20244;-83
2022/02/12 09:36:04;;;;;;;9.20;3.65;;;8.60;71.40;;;;;;4714531;30;20059;-83
2022/02/12 09:38:30;;;;;;;7.40;3.90;;;8.70;71.00;;;;;;4744556;30;20042;-83
2022/02/12 09:40:57;;;;;;;8.93;4.65;;;8.70;68.70;;;;;;4714648;30;20290;-83
2022/02/12 09:43:26;;;;;;;14.88;7.85;;;8.80;70.30;;;;;;4744299;30;20078;-83
2022/02/12 09:46:03;;;;;;;10.07;4.38;;;8.90;69.00;;;;;;4744233;30;20040;-81
2022/02/12 09:48:31;;;;;;;5.63;3.00;;;9.00;67.70;;;;;;4729526;30;20119;-82
2022/02/12 09:51:02;;;;;;;7.28;3.00;;;9.10;66.60;;;;;;4744683;30;20117;-82
2022/02/12 09:53:30;;;;;;;3.95;2.85;;;9.10;67.10;;;;;;4759002;30;20063;-82
2022/02/12 09:55:56;;;;;;;6.53;3.47;;;9.20;67.00;;;;;;4753128;30;20135;-82
2022/02/12 09:58:22;;;;;;;7.75;2.72;;;9.30;64.90;;;;;;4751436;30;20032;-81
2022/02/12 10:00:48;;;;;;;8.77;2.90;;;9.40;62.90;;;;;;4741614;30;20070;-83
2022/02/12 10:03:14;;;;;;;5.63;3.08;;;9.40;63.80;;;;;;4745001;30;20040;-83
2022/02/12 10:05:53;;;;;;;6.88;4.30;;;9.50;65.20;;;;;;4744187;30;20039;-83
2022/02/12 10:08:21;;;;;;;7.53;3.15;;;9.80;64.50;;;;;;4759589;30;20035;-82
2022/02/12 10:10:48;;;;;;;7.57;3.78;;;9.90;62.70;;;;;;4762685;30;20077;-81
2022/02/12 10:13:21;;;;;;;;;;;9.90;61.50;;;;;;4761039;30;20103;-82
2022/02/12 10:15:50;;;;;;;8.70;3.40;;;9.90;61.20;;;;;;4756503;30;19937;-81
2022/02/12 10:18:20;;;;;;;4.80;2.60;;;10.10;60.40;;;;;;4758214;30;20036;-82
2022/02/12 10:20:46;;;;;;;6.30;4.80;;;10.20;59.70;;;;;;4762835;30;20244;-82
2022/02/12 10:23:20;;;;;;;8.75;4.97;;;10.50;60.20;;;;;;4763622;30;20079;-83
2022/02/12 10:26:05;;;;;;;8.88;6.38;;;10.50;60.80;;;;;;4759708;30;20020;-82
2022/02/12 10:28:33;;;;;;;6.68;3.75;;;10.80;60.80;;;;;;4749319;30;20043;-83
2022/02/12 10:31:00;;;;;;;5.20;3.22;;;11.00;59.70;;;;;;4762863;30;20231;-83
2022/02/12 10:33:27;;;;;;;7.60;4.00;;;11.20;59.30;;;;;;4748750;30;20099;-82
2022/02/12 10:36:03;;;;;;;5.18;2.25;;;11.30;57.30;;;;;;4747744;30;20071;-82
2022/02/12 10:38:33;;;;;;;9.07;3.67;;;11.20;56.50;;;;;;4762246;30;20040;-83
2022/02/12 10:41:08;;;;;;;8.10;3.20;;;11.40;56.90;;;;;;4762708;30;20032;-83
2022/02/12 10:43:34;;;;;;;9.05;3.58;;;11.60;58.70;;;;;;4762326;30;20043;-83
2022/02/12 10:46:02;;;;;;;7.50;3.72;;;11.60;58.00;;;;;;4747195;30;20209;-84
2022/02/12 10:48:32;;;;;;;7.07;4.28;;;11.30;57.80;;;;;;4744942;30;20045;-83
2022/02/12 10:51:00;;;;;;;8.50;4.93;;;11.10;60.40;;;;;;4759723;30;20328;-83
2022/02/12 10:53:25;;;;;;;10.43;5.10;;;10.60;62.40;;;;;;4761056;30;20273;-83
2022/02/12 10:56:03;;;;;;;9.00;4.80;;;10.30;64.30;;;;;;4762008;30;20055;-83
2022/02/12 10:58:29;;;;;;;7.80;4.78;;;10.00;66.10;;;;;;4747492;30;20039;-82
2022/02/12 11:00:55;;;;;;;8.13;4.88;;;9.90;66.70;;;;;;4718580;30;20064;-82
2022/02/12 11:03:21;;;;;;;9.82;5.47;;;9.80;67.30;;;;;;4761886;30;20039;-83
2022/02/12 11:05:53;;;;;;;9.88;5.22;;;9.70;67.30;;;;;;4744387;30;20041;-83
2022/02/12 11:08:23;;;;;;;8.50;5.50;;;9.60;67.80;;;;;;4760706;30;20328;-82
2022/02/12 11:10:49;;;;;;;8.65;5.00;;;9.50;68.10;;;;;;4747402;30;20205;-81
2022/02/12 11:13:15;;;;;;;9.52;5.53;;;9.60;68.80;;;;;;4747616;30;20040;-81
2022/02/12 11:15:41;;;;;;;7.50;5.20;;;9.60;67.90;;;;;;4762383;30;20035;-81
2022/02/12 11:18:17;;;;;;;8.15;4.97;;;9.50;68.60;;;;;;4762990;30;20060;-81
2022/02/12 11:20:43;;;;;;;10.88;5.75;;;9.50;69.00;;;;;;4762128;30;20028;-81
2022/02/12 11:23:19;;;;;;;6.90;5.40;;;9.60;69.50;;;;;;4733178;30;20102;-82
2022/02/12 11:25:47;;;;;;;9.93;5.45;;;9.60;68.40;;;;;;4746068;30;20035;-82
2022/02/12 11:28:13;;;;;;;6.20;4.53;;;9.60;68.60;;;;;;4747346;30;20279;-82
2022/02/12 11:30:41;;;;;;;12.00;7.03;;;9.70;67.50;;;;;;4747231;30;20036;-82
2022/02/12 11:33:17;;;;;;;10.68;6.22;;;9.70;68.30;;;;;;4747552;30;20040;-82
2022/02/12 11:35:43;;;;;;;10.13;5.15;;;9.80;68.40;;;;;;4747050;30;20107;-82
2022/02/12 11:38:43;;;;;;;7.80;4.93;;;9.80;68.20;;;;;;4746882;30;20043;-82
2022/02/12 11:41:22;;;;;;;11.07;5.70;;;9.80;68.30;;;;;;4726878;30;20052;-82
2022/02/12 11:43:49;;;;;;;9.18;4.80;;;9.90;68.10;;;;;;4711574;30;20077;-82
2022/02/12 11:46:41;;;;;;;12.57;6.03;;;9.60;67.60;;;;;;4727871;30;20060;-83
2022/02/12 11:49:27;;;;;;;9.20;5.68;;;9.40;68.50;;;;;;4728724;30;20045;-83
2022/02/12 11:51:54;;;;;;;15.43;6.13;;;9.30;70.20;;;;;;4740425;30;20236;-83
2022/02/12 11:54:56;;;;;;;14.30;6.90;;;9.20;70.70;;;;;;4743252;30;20064;-82
2022/02/12 11:57:27;;;;;;;13.63;6.70;;;9.20;71.50;;;;;;4713715;30;20048;-83
2022/02/12 11:59:59;;;;;;;10.85;6.40;;;9.30;71.40;;;;;;4714003;30;20040;-83
2022/02/12 12:02:48;;;;;;;10.75;6.22;;;9.40;71.40;;;;;;4713906;30;20058;-83
2022/02/12 12:05:22;;;;;;;7.38;5.47;;;9.50;71.80;;;;;;4720168;30;20029;-83
2022/02/12 12:08:00;;;;;;;10.10;5.55;;;9.80;70.00;;;;;;4713980;30;20033;-82
2022/02/12 12:10:34;;;;;;;9.57;5.40;;;9.80;69.00;;;;;;4713869;30;20316;-83
2022/02/12 12:13:12;;;;;;;8.60;5.65;;;9.90;69.70;;;;;;4728296;30;20100;-83
2022/02/12 12:16:11;;;;;;;12.90;5.30;;;10.00;68.10;;;;;;4729929;30;20071;-83
2022/02/12 12:18:47;;;;;;;11.20;5.05;;;9.90;67.70;;;;;;4742077;30;20032;-83
2022/02/12 12:21:17;;;;;;;10.25;6.03;;;9.70;67.60;;;;;;4746776;30;20324;-82
2022/02/12 12:23:52;;;;;;;11.77;5.40;;;9.80;68.80;;;;;;4760640;30;20060;-83
2022/02/12 12:26:18;;;;;;;13.25;6.68;;;10.00;67.10;;;;;;4761757;30;20032;-83
2022/02/12 12:30:44;;;;;;;9.43;6.03;;;10.10;66.90;;;;;;4732337;30;20040;-82
2022/02/12 12:31:32;;;;;;;9.38;5.07;;;10.00;66.80;;;;;;4761695;30;20062;-82
2022/02/12 12:34:07;;;;;;;10.23;5.72;;;10.00;67.70;;;;;;4774581;30;20061;-82
2022/02/12 12:36:38;;;;;;;12.05;5.75;;;10.10;67.10;;;;;;4746875;30;20032;-82
2022/02/12 12:39:12;;;;;;;10.73;5.25;;;10.30;66.80;;;;;;4743866;30;20050;-83
2022/02/12 12:41:40;;;;;;;6.88;5.25;;;10.40;66.10;;;;;;4746794;30;20227;-82
2022/02/12 12:44:09;;;;;;;10.90;5.70;;;10.40;65.70;;;;;;4746660;30;20122;-82
2022/02/12 12:46:36;;;;;;;10.35;5.32;;;10.40;65.50;;;;;;4762147;30;20052;-82
2022/02/12 12:49:02;;;;;;;9.57;5.60;;;10.50;64.90;;;;;;4757743;30;20051;-82
2022/02/12 12:51:28;;;;;;;9.93;5.35;;;10.40;63.80;;;;;;4747413;30;20439;-82
2022/02/12 12:53:54;;;;;;;10.75;5.78;;;10.40;62.90;;;;;;4762462;30;20044;-82
2022/02/12 12:56:24;;;;;;;12.25;5.43;;;10.40;64.60;;;;;;4753230;30;20300;-81
2022/02/12 12:59:21;;;;;;;8.23;4.93;;;10.40;64.30;;;;;;4765385;30;20071;-83
2022/02/12 13:02:02;;;;;;;8.25;5.38;;;10.50;64.00;;;;;;4728975;30;20052;-83
2022/02/12 13:04:34;;;;;;;9.20;4.50;;;10.40;64.50;;;;;;4744453;30;20376;-82
2022/02/12 13:07:00;;;;;;;10.75;4.70;;;10.40;63.80;;;;;;4728279;30;20048;-83
2022/02/12 13:09:26;;;;;;;7.03;4.30;;;10.30;63.50;;;;;;4727671;30;20064;-83
2022/02/12 13:11:52;;;;;;;11.00;5.53;;;10.30;61.80;;;;;;4724490;30;20048;-83
2022/02/12 13:14:20;;;;;;;6.78;4.07;;;10.20;63.40;;;;;;4740116;30;20528;-83
2022/02/12 13:16:48;;;;;;;9.50;5.07;;;10.10;63.50;;;;;;4742224;30;20037;-82
2022/02/12 13:19:21;;;;;;;7.50;4.47;;;10.00;64.20;;;;;;4723317;30;20157;-82
2022/02/12 13:21:52;;;;;;;10.65;5.25;;;10.00;63.60;;;;;;4696627;30;20037;-83
2022/02/12 13:24:20;;;;;;;12.13;4.88;;;10.10;63.80;;;;;;4724504;30;20040;-82
2022/02/12 13:26:47;;;;;;;6.93;4.00;;;10.10;63.00;;;;;;4741792;30;20087;-83
2022/02/12 13:29:16;;;;;;;8.98;5.93;;;10.00;62.50;;;;;;4712862;30;20075;-83
2022/02/12 13:31:44;;;;;;;6.95;3.92;;;10.00;62.70;;;;;;4727191;30;20048;-83
2022/02/12 13:34:10;;;;;;;8.50;4.40;;;9.80;60.70;;;;;;4726915;30;20225;-83
2022/02/12 13:36:43;;;;;;;7.95;4.60;;;9.60;62.20;;;;;;4721419;30;20036;-83
2022/02/12 13:39:09;;;;;;;6.22;3.45;;;9.60;62.90;;;;;;4749257;30;20184;-82
2022/02/12 13:41:41;;;;;;;7.28;4.45;;;9.70;62.10;;;;;;4760365;30;20033;-83
2022/02/12 13:44:07;;;;;;;8.50;4.60;;;9.60;61.70;;;;;;4745112;30;20040;-83
2022/02/12 13:46:41;;;;;;;8.60;4.78;;;9.40;61.00;;;;;;4733857;30;20111;-83
2022/02/12 13:49:18;;;;;;;8.82;4.75;;;9.20;63.00;;;;;;4756473;30;20063;-83
2022/02/12 13:51:51;;;;;;;7.47;4.25;;;9.10;64.30;;;;;;4763692;30;20048;-82
2022/02/12 13:54:17;;;;;;;9.95;5.30;;;9.20;64.30;;;;;;4763858;30;20066;-83
2022/02/12 13:56:44;;;;;;;10.05;4.72;;;9.20;64.30;;;;;;4734307;30;20119;-83
2022/02/12 13:59:10;;;;;;;11.30;5.40;;;9.10;64.70;;;;;;4720238;30;20364;-83
2022/02/12 14:01:36;;;;;;;11.23;5.22;;;9.10;65.00;;;;;;4763483;30;20080;-83
2022/02/12 14:04:02;;;;;;;12.98;5.10;;;9.20;65.20;;;;;;4719700;30;20090;-83
2022/02/12 14:06:28;;;;;;;8.43;5.13;;;9.20;64.90;;;;;;4746757;30;20032;-83
2022/02/12 14:08:56;;;;;;;11.10;4.63;;;9.20;65.00;;;;;;4763304;30;20032;-82
2022/02/12 14:11:24;;;;;;;6.70;4.90;;;9.10;65.20;;;;;;4719890;30;20047;-83
2022/02/12 14:13:50;;;;;;;11.38;4.88;;;9.10;64.80;;;;;;4720109;30;20036;-83
2022/02/12 14:16:15;;;;;;;7.95;3.78;;;9.20;64.30;;;;;;4733956;30;20032;-83
2022/02/12 14:18:41;;;;;;;8.30;3.67;;;9.20;64.00;;;;;;4733640;30;20102;-83
2022/02/12 14:21:08;;;;;;;7.50;3.63;;;9.20;64.00;;;;;;4725274;30;20079;-82
2022/02/12 14:23:34;;;;;;;6.88;3.38;;;9.20;63.80;;;;;;4736965;30;20043;-83
2022/02/12 14:26:00;;;;;;;6.97;3.47;;;9.20;63.20;;;;;;4748407;30;20036;-83
2022/02/12 14:28:26;;;;;;;6.72;3.10;;;9.20;63.00;;;;;;4743038;30;20121;-83
2022/02/12 14:30:52;;;;;;;8.85;3.85;;;9.20;62.90;;;;;;4766239;30;20044;-83
2022/02/12 14:33:18;;;;;;;7.07;3.83;;;9.20;62.30;;;;;;4747211;30;20049;-83
2022/02/12 14:35:49;;;;;;;8.40;4.05;;;9.10;61.90;;;;;;4730775;30;20111;-83
2022/02/12 14:38:15;;;;;;;4.25;3.13;;;9.10;62.80;;;;;;4748417;30;20047;-82
2022/02/12 14:40:41;;;;;;;5.55;3.10;;;9.10;63.00;;;;;;4755629;30;20032;-83
2022/02/12 14:43:07;;;;;;;6.57;3.17;;;9.10;62.00;;;;;;4748138;30;20086;-83
2022/02/12 14:45:33;;;;;;;6.25;2.75;;;9.10;61.90;;;;;;4747614;30;20028;-82
2022/02/12 14:47:59;;;;;;;6.68;3.53;;;9.20;61.20;;;;;;4730348;30;20340;-83
2022/02/12 14:50:25;;;;;;;5.63;3.08;;;9.20;60.00;;;;;;4733118;30;20045;-83
2022/02/12 14:52:51;;;;;;;5.30;2.78;;;9.20;61.20;;;;;;4739646;30;20433;-83
2022/02/12 14:55:17;;;;;;;6.63;3.10;;;9.20;60.60;;;;;;4762733;30;20036;-83
2022/02/12 14:57:43;;;;;;;5.28;3.17;;;9.20;60.40;;;;;;4747913;30;20248;-83
2022/02/12 15:00:11;;;;;;;7.80;4.10;;;9.10;60.60;;;;;;4762258;30;20100;-83
2022/02/12 15:02:38;;;;;;;16.75;4.95;;;9.00;60.40;;;;;;4718828;30;20044;-82
2022/02/12 15:05:04;;;;;;;7.50;3.50;;;8.90;61.40;;;;;;4762196;30;20028;-83
2022/02/12 15:07:31;;;;;;;10.45;3.67;;;8.80;61.10;;;;;;4746398;30;20040;-83
2022/02/12 15:09:57;;;;;;;22.50;5.72;;;8.60;60.70;;;;;;4776912;30;20066;-82
2022/02/12 15:12:23;;;;;;;9.10;4.07;;;8.50;61.30;;;;;;4745895;30;20045;-83
2022/02/12 15:14:50;;;;;;;4.60;2.92;;;8.50;61.50;;;;;;4747320;30;20097;-82
2022/02/12 15:17:15;;;;;;;7.53;3.50;;;8.40;61.30;;;;;;4718511;30;20114;-82
2022/02/12 15:19:41;;;;;;;5.97;4.90;;;8.30;61.50;;;;;;4732798;30;20040;-82
2022/02/12 15:22:07;;;;;;;7.90;3.90;;;8.20;62.10;;;;;;4718301;30;20046;-82
2022/02/12 15:24:33;;;;;;;10.13;4.63;;;8.20;62.90;;;;;;4747247;30;20028;-82
2022/02/12 15:26:59;;;;;;;13.20;4.85;;;8.10;63.60;;;;;;4759283;30;20217;-82
2022/02/12 15:29:25;;;;;;;5.95;4.13;;;8.10;64.30;;;;;;4761797;30;20043;-82
2022/02/12 15:31:51;;;;;;;6.38;4.03;;;8.10;64.70;;;;;;4732641;30;20338;-83
2022/02/12 15:34:16;;;;;;;8.68;4.25;;;8.00;64.90;;;;;;4732461;30;20039;-83
2022/02/12 15:36:43;;;;;;;7.05;4.57;;;7.90;65.30;;;;;;4747201;30;20039;-83
2022/02/12 15:39:09;;;;;;;12.20;5.57;;;7.90;65.80;;;;;;4743894;30;20871;-83
2022/02/12 15:41:35;;;;;;;11.60;4.35;;;7.80;66.00;;;;;;4716652;30;20079;-83
2022/02/12 15:44:01;;;;;;;10.52;4.82;;;7.80;66.30;;;;;;4761101;30;20059;-83
2022/02/12 15:46:27;;;;;;;10.57;7.72;;;7.70;66.00;;;;;;4746591;30;20071;-83
2022/02/12 15:48:53;;;;;;;9.02;4.82;;;7.60;66.00;;;;;;4729492;30;20115;-84
2022/02/12 15:51:18;;;;;;;6.72;4.03;;;7.60;66.20;;;;;;4726238;30;20358;-83
2022/02/12 15:53:45;;;;;;;9.20;4.80;;;7.50;66.30;;;;;;4735214;30;20063;-83
2022/02/12 15:56:12;;;;;;;7.35;4.78;;;7.50;66.60;;;;;;4761241;30;20036;-83
2022/02/12 15:58:37;;;;;;;10.25;5.35;;;7.40;66.70;;;;;;4746473;30;20089;-83
2022/02/12 16:01:03;;;;;;;9.95;4.78;;;7.30;67.10;;;;;;4717451;30;20244;-83
2022/02/12 16:03:29;;;;;;;9.15;5.15;;;7.30;67.40;;;;;;4732315;30;20035;-83
2022/02/12 16:05:55;;;;;;;12.68;6.13;;;7.20;67.70;;;;;;4746536;30;20224;-83
2022/02/12 16:08:21;;;;;;;21.58;7.32;;;7.10;68.10;;;;;;4746522;30;20032;-83
2022/02/12 16:10:47;;;;;;;20.10;7.68;;;7.10;68.30;;;;;;4730145;30;20271;-83
2022/02/12 16:13:12;;;;;;;14.10;5.95;;;7.10;68.50;;;;;;4716907;30;20336;-83
2022/02/12 16:15:41;;;;;;;12.23;5.43;;;7.00;68.70;;;;;;4746275;30;20251;-83
2022/02/12 16:18:07;;;;;;;13.00;5.78;;;6.90;69.00;;;;;;4765903;30;20039;-83
2022/02/12 16:20:33;;;;;;;9.55;5.22;;;6.80;69.40;;;;;;4760899;30;20111;-83
2022/02/12 16:22:59;;;;;;;12.68;5.43;;;6.70;69.70;;;;;;4746243;30;20087;-83
2022/02/12 16:25:26;;;;;;;10.07;5.38;;;6.70;70.20;;;;;;4717366;30;20028;-83
2022/02/12 16:27:53;;;;;;;10.88;5.32;;;6.70;70.50;;;;;;4761315;30;20032;-83
2022/02/12 16:30:20;;;;;;;9.55;4.78;;;6.60;70.80;;;;;;4746220;30;20055;-83
2022/02/12 16:32:46;;;;;;;9.13;4.80;;;6.50;71.10;;;;;;4731551;30;20047;-83
2022/02/12 16:35:12;;;;;;;10.85;4.70;;;6.40;71.40;;;;;;4757911;30;20037;-83
2022/02/12 16:37:38;;;;;;;9.75;5.32;;;6.40;72.00;;;;;;4745962;30;20086;-83
2022/02/12 16:40:05;;;;;;;11.87;5.90;;;6.30;72.40;;;;;;4745949;30;20324;-83
2022/02/12 16:42:31;;;;;;;;;;;6.30;72.40;;;;;;4746356;30;20032;-83
2022/02/12 16:44:56;;;;;;;10.73;5.43;;;6.20;73.10;;;;;;4745883;30;20007;-83